sensor_id;sensor_type;location;lat;lon;timestamp;P1;durP1;ratioP1;P2;durP2;ratioP2
24735;SDS011;12840;48.144;17.136;2023-03-16T00:02:14;6.27;;;4.07;;
24735;SDS011;12840;48.144;17.136;2023-03-16T00:04:42;6.40;;;3.80;;
24735;SDS011;12840;48.144;17.136;2023-03-16T00:07:11;7.17;;;4.57;;
24735;SDS011;12840;48.144;17.136;2023-03-16T00:09:39;8.03;;;4.90;;
24735;SDS011;12840;48.144;17.136;2023-03-16T00:12:09;8.57;;;4.97;;
24735;SDS011;12840;48.144;17.136;2023-03-16T00:14:40;7.93;;;4.57;;
24735;SDS011;12840;48.144;17.136;2023-03-16T00:17:09;7.07;;;4.93;;
24735;SDS011;12840;48.144;17.136;2023-03-16T00:19:43;9.83;;;4.70;;
24735;SDS011;12840;48.144;17.136;2023-03-16T00:22:12;7.07;;;4.83;;
24735;SDS011;12840;48.144;17.136;2023-03-16T00:24:40;7.73;;;5.00;;
24735;SDS011;12840;48.144;17.136;2023-03-16T00:27:08;8.87;;;5.37;;
24735;SDS011;12840;48.144;17.136;2023-03-16T00:29:39;7.93;;;5.27;;
24735;SDS011;12840;48.144;17.136;2023-03-16T00:32:14;9.30;;;5.33;;
24735;SDS011;12840;48.144;17.136;2023-03-16T00:34:42;8.97;;;5.60;;
24735;SDS011;12840;48.144;17.136;2023-03-16T00:37:10;9.10;;;5.73;;
24735;SDS011;12840;48.144;17.136;2023-03-16T00:39:39;8.97;;;5.60;;
24735;SDS011;12840;48.144;17.136;2023-03-16T00:42:07;9.40;;;5.77;;
24735;SDS011;12840;48.144;17.136;2023-03-16T00:44:34;9.90;;;6.00;;
24735;SDS011;12840;48.144;17.136;2023-03-16T00:47:02;10.67;;;6.53;;
24735;SDS011;12840;48.144;17.136;2023-03-16T00:49:31;10.73;;;6.30;;
24735;SDS011;12840;48.144;17.136;2023-03-16T00:51:59;11.37;;;6.70;;
24735;SDS011;12840;48.144;17.136;2023-03-16T00:54:27;10.47;;;6.70;;
24735;SDS011;12840;48.144;17.136;2023-03-16T00:56:56;11.10;;;6.50;;
24735;SDS011;12840;48.144;17.136;2023-03-16T00:59:24;11.50;;;7.13;;
24735;SDS011;12840;48.144;17.136;2023-03-16T01:01:51;12.17;;;7.37;;
24735;SDS011;12840;48.144;17.136;2023-03-16T01:04:19;11.37;;;7.27;;
24735;SDS011;12840;48.144;17.136;2023-03-16T01:06:48;13.97;;;7.10;;
24735;SDS011;12840;48.144;17.136;2023-03-16T01:09:16;12.90;;;7.33;;
24735;SDS011;12840;48.144;17.136;2023-03-16T01:11:43;12.40;;;7.10;;
24735;SDS011;12840;48.144;17.136;2023-03-16T01:14:14;13.90;;;7.47;;
24735;SDS011;12840;48.144;17.136;2023-03-16T01:16:41;12.40;;;7.23;;
24735;SDS011;12840;48.144;17.136;2023-03-16T01:19:10;13.60;;;8.00;;
24735;SDS011;12840;48.144;17.136;2023-03-16T01:21:38;14.10;;;7.50;;
24735;SDS011;12840;48.144;17.136;2023-03-16T01:24:08;12.30;;;7.50;;
24735;SDS011;12840;48.144;17.136;2023-03-16T01:26:36;11.73;;;7.33;;
24735;SDS011;12840;48.144;17.136;2023-03-16T01:29:03;12.93;;;7.57;;
24735;SDS011;12840;48.144;17.136;2023-03-16T01:31:31;14.57;;;7.90;;
24735;SDS011;12840;48.144;17.136;2023-03-16T01:33:58;17.47;;;8.67;;
24735;SDS011;12840;48.144;17.136;2023-03-16T01:36:28;13.77;;;8.60;;
24735;SDS011;12840;48.144;17.136;2023-03-16T01:38:55;12.53;;;7.90;;
24735;SDS011;12840;48.144;17.136;2023-03-16T01:41:24;13.53;;;8.03;;
24735;SDS011;12840;48.144;17.136;2023-03-16T01:43:52;12.57;;;8.00;;
24735;SDS011;12840;48.144;17.136;2023-03-16T01:46:23;14.07;;;8.30;;
24735;SDS011;12840;48.144;17.136;2023-03-16T01:48:55;14.67;;;8.23;;
24735;SDS011;12840;48.144;17.136;2023-03-16T01:51:25;14.23;;;8.17;;
24735;SDS011;12840;48.144;17.136;2023-03-16T01:53:56;16.17;;;8.13;;
24735;SDS011;12840;48.144;17.136;2023-03-16T01:56:26;16.07;;;8.37;;
24735;SDS011;12840;48.144;17.136;2023-03-16T01:58:58;13.10;;;8.27;;
24735;SDS011;12840;48.144;17.136;2023-03-16T02:01:29;14.93;;;8.80;;
24735;SDS011;12840;48.144;17.136;2023-03-16T02:03:59;14.57;;;8.70;;
24735;SDS011;12840;48.144;17.136;2023-03-16T02:06:29;17.80;;;8.30;;
24735;SDS011;12840;48.144;17.136;2023-03-16T02:08:57;14.70;;;8.17;;
24735;SDS011;12840;48.144;17.136;2023-03-16T02:11:27;16.43;;;9.63;;
24735;SDS011;12840;48.144;17.136;2023-03-16T02:13:54;15.50;;;8.50;;
24735;SDS011;12840;48.144;17.136;2023-03-16T02:16:24;13.47;;;8.37;;
24735;SDS011;12840;48.144;17.136;2023-03-16T02:18:52;13.23;;;8.10;;
24735;SDS011;12840;48.144;17.136;2023-03-16T02:21:21;14.40;;;8.37;;
24735;SDS011;12840;48.144;17.136;2023-03-16T02:23:52;13.47;;;7.97;;
24735;SDS011;12840;48.144;17.136;2023-03-16T02:26:21;15.13;;;9.03;;
24735;SDS011;12840;48.144;17.136;2023-03-16T02:28:55;14.60;;;8.77;;
24735;SDS011;12840;48.144;17.136;2023-03-16T02:31:26;17.53;;;9.53;;
24735;SDS011;12840;48.144;17.136;2023-03-16T02:33:54;15.53;;;9.20;;
24735;SDS011;12840;48.144;17.136;2023-03-16T02:36:22;16.47;;;9.40;;
24735;SDS011;12840;48.144;17.136;2023-03-16T02:38:50;14.20;;;8.00;;
24735;SDS011;12840;48.144;17.136;2023-03-16T02:41:18;17.13;;;9.80;;
24735;SDS011;12840;48.144;17.136;2023-03-16T02:43:47;17.60;;;8.90;;
24735;SDS011;12840;48.144;17.136;2023-03-16T02:46:18;17.27;;;9.73;;
24735;SDS011;12840;48.144;17.136;2023-03-16T02:48:48;18.97;;;9.20;;
24735;SDS011;12840;48.144;17.136;2023-03-16T02:51:17;16.87;;;9.27;;
24735;SDS011;12840;48.144;17.136;2023-03-16T02:53:44;17.20;;;9.70;;
24735;SDS011;12840;48.144;17.136;2023-03-16T02:56:12;18.80;;;9.73;;
24735;SDS011;12840;48.144;17.136;2023-03-16T02:58:39;16.67;;;9.50;;
24735;SDS011;12840;48.144;17.136;2023-03-16T03:01:07;15.00;;;8.93;;
24735;SDS011;12840;48.144;17.136;2023-03-16T03:03:34;16.87;;;8.67;;
24735;SDS011;12840;48.144;17.136;2023-03-16T03:06:03;18.73;;;9.53;;
24735;SDS011;12840;48.144;17.136;2023-03-16T03:08:31;15.97;;;9.23;;
24735;SDS011;12840;48.144;17.136;2023-03-16T03:10:59;17.33;;;8.80;;
24735;SDS011;12840;48.144;17.136;2023-03-16T03:13:26;15.53;;;9.23;;
24735;SDS011;12840;48.144;17.136;2023-03-16T03:15:54;16.30;;;9.57;;
24735;SDS011;12840;48.144;17.136;2023-03-16T03:18:21;16.30;;;9.23;;
24735;SDS011;12840;48.144;17.136;2023-03-16T03:20:49;16.33;;;8.77;;
24735;SDS011;12840;48.144;17.136;2023-03-16T03:23:18;17.47;;;9.63;;
24735;SDS011;12840;48.144;17.136;2023-03-16T03:25:46;16.87;;;8.90;;
24735;SDS011;12840;48.144;17.136;2023-03-16T03:28:13;16.80;;;9.47;;
24735;SDS011;12840;48.144;17.136;2023-03-16T03:30:41;16.17;;;9.20;;
24735;SDS011;12840;48.144;17.136;2023-03-16T03:33:08;17.63;;;9.43;;
24735;SDS011;12840;48.144;17.136;2023-03-16T03:35:37;18.40;;;9.93;;
24735;SDS011;12840;48.144;17.136;2023-03-16T03:38:06;18.90;;;9.50;;
24735;SDS011;12840;48.144;17.136;2023-03-16T03:40:35;17.37;;;9.13;;
24735;SDS011;12840;48.144;17.136;2023-03-16T03:43:02;18.93;;;9.70;;
24735;SDS011;12840;48.144;17.136;2023-03-16T03:45:30;15.37;;;9.23;;
24735;SDS011;12840;48.144;17.136;2023-03-16T03:47:58;15.33;;;9.13;;
24735;SDS011;12840;48.144;17.136;2023-03-16T03:50:25;18.93;;;9.43;;
24735;SDS011;12840;48.144;17.136;2023-03-16T03:52:53;14.40;;;8.57;;
24735;SDS011;12840;48.144;17.136;2023-03-16T03:55:20;17.80;;;9.17;;
24735;SDS011;12840;48.144;17.136;2023-03-16T03:57:49;19.60;;;9.73;;
24735;SDS011;12840;48.144;17.136;2023-03-16T04:00:17;16.07;;;9.10;;
24735;SDS011;12840;48.144;17.136;2023-03-16T04:02:46;16.07;;;9.00;;
24735;SDS011;12840;48.144;17.136;2023-03-16T04:05:13;15.57;;;9.03;;
24735;SDS011;12840;48.144;17.136;2023-03-16T04:07:41;16.80;;;9.67;;
24735;SDS011;12840;48.144;17.136;2023-03-16T04:10:09;19.30;;;10.10;;
24735;SDS011;12840;48.144;17.136;2023-03-16T04:12:37;20.67;;;10.00;;
24735;SDS011;12840;48.144;17.136;2023-03-16T04:15:07;16.23;;;9.57;;
24735;SDS011;12840;48.144;17.136;2023-03-16T04:17:35;16.93;;;9.67;;
24735;SDS011;12840;48.144;17.136;2023-03-16T04:20:03;19.87;;;10.47;;
24735;SDS011;12840;48.144;17.136;2023-03-16T04:22:35;17.87;;;10.33;;
24735;SDS011;12840;48.144;17.136;2023-03-16T04:25:03;20.80;;;11.73;;
24735;SDS011;12840;48.144;17.136;2023-03-16T04:27:31;18.20;;;9.83;;
24735;SDS011;12840;48.144;17.136;2023-03-16T04:30:01;18.23;;;10.53;;
24735;SDS011;12840;48.144;17.136;2023-03-16T04:32:31;21.03;;;11.27;;
24735;SDS011;12840;48.144;17.136;2023-03-16T04:34:58;19.87;;;11.07;;
24735;SDS011;12840;48.144;17.136;2023-03-16T04:37:26;19.57;;;10.83;;
24735;SDS011;12840;48.144;17.136;2023-03-16T04:39:55;19.77;;;10.63;;
24735;SDS011;12840;48.144;17.136;2023-03-16T04:42:22;21.30;;;11.57;;
24735;SDS011;12840;48.144;17.136;2023-03-16T04:44:49;18.97;;;10.07;;
24735;SDS011;12840;48.144;17.136;2023-03-16T04:47:17;18.87;;;10.17;;
24735;SDS011;12840;48.144;17.136;2023-03-16T04:49:46;17.20;;;10.20;;
24735;SDS011;12840;48.144;17.136;2023-03-16T04:52:14;18.27;;;10.13;;
24735;SDS011;12840;48.144;17.136;2023-03-16T04:54:41;21.00;;;10.90;;
24735;SDS011;12840;48.144;17.136;2023-03-16T04:57:09;21.93;;;10.63;;
24735;SDS011;12840;48.144;17.136;2023-03-16T04:59:36;21.23;;;11.10;;
24735;SDS011;12840;48.144;17.136;2023-03-16T05:02:03;18.53;;;10.93;;
24735;SDS011;12840;48.144;17.136;2023-03-16T05:04:31;20.93;;;11.50;;
24735;SDS011;12840;48.144;17.136;2023-03-16T05:07:00;20.50;;;11.30;;
24735;SDS011;12840;48.144;17.136;2023-03-16T05:09:28;21.23;;;11.23;;
24735;SDS011;12840;48.144;17.136;2023-03-16T05:11:55;20.50;;;11.63;;
24735;SDS011;12840;48.144;17.136;2023-03-16T05:14:23;24.20;;;12.17;;
24735;SDS011;12840;48.144;17.136;2023-03-16T05:16:50;21.50;;;11.87;;
24735;SDS011;12840;48.144;17.136;2023-03-16T05:19:18;21.47;;;11.63;;
24735;SDS011;12840;48.144;17.136;2023-03-16T05:21:45;20.77;;;11.70;;
24735;SDS011;12840;48.144;17.136;2023-03-16T05:24:14;21.13;;;11.77;;
24735;SDS011;12840;48.144;17.136;2023-03-16T05:26:42;21.13;;;12.00;;
24735;SDS011;12840;48.144;17.136;2023-03-16T05:29:10;23.37;;;12.57;;
24735;SDS011;12840;48.144;17.136;2023-03-16T05:31:37;21.93;;;11.67;;
24735;SDS011;12840;48.144;17.136;2023-03-16T05:34:05;22.87;;;11.70;;
24735;SDS011;12840;48.144;17.136;2023-03-16T05:36:32;21.53;;;11.30;;
24735;SDS011;12840;48.144;17.136;2023-03-16T05:39:00;23.27;;;12.40;;
24735;SDS011;12840;48.144;17.136;2023-03-16T05:41:29;22.73;;;12.27;;
24735;SDS011;12840;48.144;17.136;2023-03-16T05:43:56;25.87;;;12.90;;
24735;SDS011;12840;48.144;17.136;2023-03-16T05:46:24;21.47;;;11.40;;
24735;SDS011;12840;48.144;17.136;2023-03-16T05:48:51;25.33;;;11.93;;
24735;SDS011;12840;48.144;17.136;2023-03-16T05:51:19;21.73;;;11.50;;
24735;SDS011;12840;48.144;17.136;2023-03-16T05:53:46;23.20;;;11.60;;
24735;SDS011;12840;48.144;17.136;2023-03-16T05:56:14;22.43;;;11.40;;
24735;SDS011;12840;48.144;17.136;2023-03-16T05:58:43;21.33;;;11.73;;
24735;SDS011;12840;48.144;17.136;2023-03-16T06:01:10;22.30;;;11.90;;
24735;SDS011;12840;48.144;17.136;2023-03-16T06:03:39;22.37;;;11.80;;
24735;SDS011;12840;48.144;17.136;2023-03-16T06:06:07;20.07;;;11.53;;
24735;SDS011;12840;48.144;17.136;2023-03-16T06:08:35;19.67;;;11.10;;
24735;SDS011;12840;48.144;17.136;2023-03-16T06:11:02;21.70;;;11.67;;
24735;SDS011;12840;48.144;17.136;2023-03-16T06:13:30;20.30;;;11.43;;
24735;SDS011;12840;48.144;17.136;2023-03-16T06:15:59;20.73;;;11.70;;
24735;SDS011;12840;48.144;17.136;2023-03-16T06:18:26;22.40;;;11.77;;
24735;SDS011;12840;48.144;17.136;2023-03-16T06:20:54;23.97;;;12.60;;
24735;SDS011;12840;48.144;17.136;2023-03-16T06:23:21;21.50;;;12.03;;
24735;SDS011;12840;48.144;17.136;2023-03-16T06:25:49;23.30;;;12.33;;
24735;SDS011;12840;48.144;17.136;2023-03-16T06:28:18;21.10;;;11.67;;
24735;SDS011;12840;48.144;17.136;2023-03-16T06:30:46;21.20;;;12.00;;
24735;SDS011;12840;48.144;17.136;2023-03-16T06:33:15;25.07;;;12.00;;
24735;SDS011;12840;48.144;17.136;2023-03-16T06:35:42;22.03;;;11.10;;
24735;SDS011;12840;48.144;17.136;2023-03-16T06:38:12;17.13;;;10.53;;
24735;SDS011;12840;48.144;17.136;2023-03-16T06:40:40;18.33;;;10.83;;
24735;SDS011;12840;48.144;17.136;2023-03-16T06:43:07;15.27;;;10.10;;
24735;SDS011;12840;48.144;17.136;2023-03-16T06:45:35;15.00;;;10.27;;
24735;SDS011;12840;48.144;17.136;2023-03-16T06:48:02;14.53;;;10.00;;
24735;SDS011;12840;48.144;17.136;2023-03-16T06:50:32;15.10;;;10.10;;
24735;SDS011;12840;48.144;17.136;2023-03-16T06:53:00;13.75;;;9.85;;
24735;SDS011;12840;48.144;17.136;2023-03-16T06:55:27;14.45;;;10.52;;
24735;SDS011;12840;48.144;17.136;2023-03-16T06:57:55;17.20;;;11.30;;
24735;SDS011;12840;48.144;17.136;2023-03-16T07:00:24;12.93;;;9.95;;
24735;SDS011;12840;48.144;17.136;2023-03-16T07:02:53;12.93;;;10.50;;
24735;SDS011;12840;48.144;17.136;2023-03-16T07:05:20;14.10;;;9.90;;
24735;SDS011;12840;48.144;17.136;2023-03-16T07:07:49;13.15;;;10.15;;
24735;SDS011;12840;48.144;17.136;2023-03-16T07:10:17;16.07;;;9.90;;
24735;SDS011;12840;48.144;17.136;2023-03-16T07:12:44;13.33;;;8.87;;
24735;SDS011;12840;48.144;17.136;2023-03-16T07:15:12;12.32;;;9.02;;
24735;SDS011;12840;48.144;17.136;2023-03-16T07:17:40;13.07;;;9.07;;
24735;SDS011;12840;48.144;17.136;2023-03-16T07:20:08;10.10;;;8.32;;
24735;SDS011;12840;48.144;17.136;2023-03-16T07:22:37;11.88;;;9.38;;
24735;SDS011;12840;48.144;17.136;2023-03-16T07:25:07;15.00;;;9.50;;
24735;SDS011;12840;48.144;17.136;2023-03-16T07:27:35;13.45;;;9.13;;
24735;SDS011;12840;48.144;17.136;2023-03-16T07:30:03;10.80;;;8.65;;
24735;SDS011;12840;48.144;17.136;2023-03-16T07:32:31;10.93;;;8.32;;
24735;SDS011;12840;48.144;17.136;2023-03-16T07:34:58;13.30;;;9.02;;
24735;SDS011;12840;48.144;17.136;2023-03-16T07:37:26;11.60;;;8.15;;
24735;SDS011;12840;48.144;17.136;2023-03-16T07:39:54;11.02;;;8.00;;
24735;SDS011;12840;48.144;17.136;2023-03-16T07:42:22;13.15;;;8.40;;
24735;SDS011;12840;48.144;17.136;2023-03-16T07:44:50;13.48;;;8.45;;
24735;SDS011;12840;48.144;17.136;2023-03-16T07:47:17;11.65;;;8.18;;
24735;SDS011;12840;48.144;17.136;2023-03-16T07:49:45;12.88;;;8.07;;
24735;SDS011;12840;48.144;17.136;2023-03-16T07:52:12;10.27;;;7.32;;
24735;SDS011;12840;48.144;17.136;2023-03-16T07:54:40;12.07;;;7.87;;
24735;SDS011;12840;48.144;17.136;2023-03-16T07:57:08;12.70;;;7.50;;
24735;SDS011;12840;48.144;17.136;2023-03-16T07:59:37;12.93;;;7.47;;
24735;SDS011;12840;48.144;17.136;2023-03-16T08:02:05;11.47;;;7.37;;
24735;SDS011;12840;48.144;17.136;2023-03-16T08:04:33;10.87;;;7.20;;
24735;SDS011;12840;48.144;17.136;2023-03-16T08:07:00;16.60;;;11.20;;
24735;SDS011;12840;48.144;17.136;2023-03-16T08:09:28;15.47;;;11.07;;
24735;SDS011;12840;48.144;17.136;2023-03-16T08:11:55;17.47;;;11.93;;
24735;SDS011;12840;48.144;17.136;2023-03-16T08:14:23;18.77;;;11.87;;
24735;SDS011;12840;48.144;17.136;2023-03-16T08:16:52;18.53;;;11.87;;
24735;SDS011;12840;48.144;17.136;2023-03-16T08:19:19;16.10;;;11.23;;
24735;SDS011;12840;48.144;17.136;2023-03-16T08:21:47;17.43;;;11.07;;
24735;SDS011;12840;48.144;17.136;2023-03-16T08:24:15;17.03;;;11.47;;
24735;SDS011;12840;48.144;17.136;2023-03-16T08:26:42;17.43;;;10.97;;
24735;SDS011;12840;48.144;17.136;2023-03-16T08:29:10;18.37;;;11.03;;
24735;SDS011;12840;48.144;17.136;2023-03-16T08:31:37;20.27;;;11.00;;
24735;SDS011;12840;48.144;17.136;2023-03-16T08:34:08;15.83;;;9.90;;
24735;SDS011;12840;48.144;17.136;2023-03-16T08:36:36;12.27;;;7.67;;
24735;SDS011;12840;48.144;17.136;2023-03-16T08:39:03;13.57;;;7.67;;
24735;SDS011;12840;48.144;17.136;2023-03-16T08:41:31;15.70;;;7.30;;
24735;SDS011;12840;48.144;17.136;2023-03-16T08:43:58;12.33;;;7.40;;
24735;SDS011;12840;48.144;17.136;2023-03-16T08:46:27;16.40;;;9.00;;
24735;SDS011;12840;48.144;17.136;2023-03-16T08:48:54;16.17;;;8.80;;
24735;SDS011;12840;48.144;17.136;2023-03-16T08:51:23;16.13;;;7.53;;
24735;SDS011;12840;48.144;17.136;2023-03-16T08:53:51;15.70;;;9.10;;
24735;SDS011;12840;48.144;17.136;2023-03-16T08:56:19;17.63;;;9.47;;
24735;SDS011;12840;48.144;17.136;2023-03-16T08:58:46;14.60;;;9.50;;
24735;SDS011;12840;48.144;17.136;2023-03-16T09:01:15;11.63;;;7.50;;
24735;SDS011;12840;48.144;17.136;2023-03-16T09:03:43;14.17;;;6.70;;
24735;SDS011;12840;48.144;17.136;2023-03-16T09:06:11;11.90;;;7.70;;
24735;SDS011;12840;48.144;17.136;2023-03-16T09:08:41;16.47;;;9.50;;
24735;SDS011;12840;48.144;17.136;2023-03-16T09:11:10;15.43;;;9.50;;
24735;SDS011;12840;48.144;17.136;2023-03-16T09:13:38;19.03;;;9.70;;
24735;SDS011;12840;48.144;17.136;2023-03-16T09:16:06;17.77;;;9.50;;
24735;SDS011;12840;48.144;17.136;2023-03-16T09:18:34;15.10;;;8.90;;
24735;SDS011;12840;48.144;17.136;2023-03-16T09:21:02;15.73;;;9.67;;
24735;SDS011;12840;48.144;17.136;2023-03-16T09:23:30;12.57;;;8.00;;
24735;SDS011;12840;48.144;17.136;2023-03-16T09:26:00;15.10;;;8.50;;
24735;SDS011;12840;48.144;17.136;2023-03-16T09:28:29;14.70;;;8.77;;
24735;SDS011;12840;48.144;17.136;2023-03-16T09:30:57;13.83;;;8.30;;
24735;SDS011;12840;48.144;17.136;2023-03-16T09:33:25;13.37;;;7.10;;
24735;SDS011;12840;48.144;17.136;2023-03-16T09:35:54;13.57;;;7.10;;
24735;SDS011;12840;48.144;17.136;2023-03-16T09:38:22;12.33;;;6.43;;
24735;SDS011;12840;48.144;17.136;2023-03-16T09:40:54;9.73;;;6.30;;
24735;SDS011;12840;48.144;17.136;2023-03-16T09:43:34;10.73;;;7.37;;
24735;SDS011;12840;48.144;17.136;2023-03-16T09:46:05;10.87;;;7.17;;
24735;SDS011;12840;48.144;17.136;2023-03-16T09:48:35;12.17;;;7.40;;
24735;SDS011;12840;48.144;17.136;2023-03-16T09:51:04;13.27;;;7.50;;
24735;SDS011;12840;48.144;17.136;2023-03-16T09:53:33;11.60;;;7.40;;
24735;SDS011;12840;48.144;17.136;2023-03-16T09:56:02;14.00;;;8.23;;
24735;SDS011;12840;48.144;17.136;2023-03-16T09:58:31;10.70;;;7.57;;
24735;SDS011;12840;48.144;17.136;2023-03-16T10:01:01;12.25;;;8.40;;
24735;SDS011;12840;48.144;17.136;2023-03-16T10:03:35;12.48;;;7.90;;
24735;SDS011;12840;48.144;17.136;2023-03-16T10:06:08;12.75;;;7.10;;
24735;SDS011;12840;48.144;17.136;2023-03-16T10:08:37;10.57;;;6.65;;
24735;SDS011;12840;48.144;17.136;2023-03-16T10:13:53;11.50;;;7.32;;
24735;SDS011;12840;48.144;17.136;2023-03-16T10:16:23;11.77;;;7.43;;
24735;SDS011;12840;48.144;17.136;2023-03-16T10:18:55;9.02;;;7.55;;
24735;SDS011;12840;48.144;17.136;2023-03-16T10:21:23;10.35;;;6.97;;
24735;SDS011;12840;48.144;17.136;2023-03-16T10:23:51;7.53;;;5.85;;
24735;SDS011;12840;48.144;17.136;2023-03-16T10:26:21;8.45;;;5.63;;
24735;SDS011;12840;48.144;17.136;2023-03-16T10:28:50;5.82;;;4.28;;
24735;SDS011;12840;48.144;17.136;2023-03-16T10:31:21;6.20;;;4.28;;
24735;SDS011;12840;48.144;17.136;2023-03-16T10:33:49;5.38;;;3.40;;
24735;SDS011;12840;48.144;17.136;2023-03-16T10:36:22;7.70;;;3.83;;
24735;SDS011;12840;48.144;17.136;2023-03-16T10:38:51;4.88;;;3.05;;
24735;SDS011;12840;48.144;17.136;2023-03-16T10:41:20;8.48;;;3.60;;
24735;SDS011;12840;48.144;17.136;2023-03-16T10:43:50;5.72;;;3.10;;
24735;SDS011;12840;48.144;17.136;2023-03-16T10:46:18;6.30;;;3.78;;
24735;SDS011;12840;48.144;17.136;2023-03-16T10:48:54;5.93;;;3.25;;
24735;SDS011;12840;48.144;17.136;2023-03-16T10:51:25;6.68;;;3.50;;
24735;SDS011;12840;48.144;17.136;2023-03-16T10:53:55;8.05;;;3.38;;
24735;SDS011;12840;48.144;17.136;2023-03-16T10:56:23;9.38;;;3.10;;
24735;SDS011;12840;48.144;17.136;2023-03-16T10:58:51;6.70;;;3.58;;
24735;SDS011;12840;48.144;17.136;2023-03-16T11:01:20;6.47;;;3.23;;
24735;SDS011;12840;48.144;17.136;2023-03-16T11:03:48;5.40;;;3.00;;
24735;SDS011;12840;48.144;17.136;2023-03-16T11:06:22;4.10;;;2.83;;
24735;SDS011;12840;48.144;17.136;2023-03-16T11:08:50;4.43;;;3.03;;
24735;SDS011;12840;48.144;17.136;2023-03-16T11:11:20;6.70;;;3.50;;
24735;SDS011;12840;48.144;17.136;2023-03-16T11:13:54;7.87;;;4.03;;
24735;SDS011;12840;48.144;17.136;2023-03-16T11:16:23;10.60;;;4.30;;
24735;SDS011;12840;48.144;17.136;2023-03-16T11:18:51;9.03;;;4.20;;
24735;SDS011;12840;48.144;17.136;2023-03-16T11:21:29;5.37;;;3.83;;
24735;SDS011;12840;48.144;17.136;2023-03-16T11:23:57;8.40;;;4.13;;
24735;SDS011;12840;48.144;17.136;2023-03-16T11:26:29;9.37;;;3.87;;
24735;SDS011;12840;48.144;17.136;2023-03-16T11:28:59;4.87;;;3.70;;
24735;SDS011;12840;48.144;17.136;2023-03-16T11:31:36;7.47;;;3.87;;
24735;SDS011;12840;48.144;17.136;2023-03-16T11:34:09;6.87;;;3.90;;
24735;SDS011;12840;48.144;17.136;2023-03-16T11:36:42;5.33;;;3.70;;
24735;SDS011;12840;48.144;17.136;2023-03-16T11:39:12;8.63;;;3.77;;
24735;SDS011;12840;48.144;17.136;2023-03-16T11:41:47;7.47;;;4.20;;
24735;SDS011;12840;48.144;17.136;2023-03-16T11:44:18;6.90;;;3.73;;
24735;SDS011;12840;48.144;17.136;2023-03-16T11:46:52;8.13;;;3.50;;
24735;SDS011;12840;48.144;17.136;2023-03-16T11:49:29;5.70;;;3.07;;
24735;SDS011;12840;48.144;17.136;2023-03-16T11:52:00;5.13;;;2.80;;
24735;SDS011;12840;48.144;17.136;2023-03-16T11:54:35;5.03;;;2.97;;
24735;SDS011;12840;48.144;17.136;2023-03-16T11:57:08;4.77;;;2.30;;
24735;SDS011;12840;48.144;17.136;2023-03-16T11:59:48;5.67;;;2.83;;
24735;SDS011;12840;48.144;17.136;2023-03-16T12:02:25;5.87;;;2.67;;
24735;SDS011;12840;48.144;17.136;2023-03-16T12:05:01;6.23;;;2.70;;
24735;SDS011;12840;48.144;17.136;2023-03-16T12:07:37;6.00;;;3.17;;
24735;SDS011;12840;48.144;17.136;2023-03-16T12:10:19;4.93;;;3.10;;
24735;SDS011;12840;48.144;17.136;2023-03-16T12:12:53;6.70;;;3.00;;
24735;SDS011;12840;48.144;17.136;2023-03-16T12:15:25;19.03;;;10.60;;
24735;SDS011;12840;48.144;17.136;2023-03-16T12:17:58;9.73;;;4.30;;
24735;SDS011;12840;48.144;17.136;2023-03-16T12:20:27;5.77;;;2.77;;
24735;SDS011;12840;48.144;17.136;2023-03-16T12:23:01;8.13;;;4.63;;
24735;SDS011;12840;48.144;17.136;2023-03-16T12:25:32;4.30;;;2.80;;
24735;SDS011;12840;48.144;17.136;2023-03-16T12:28:01;4.77;;;2.90;;
24735;SDS011;12840;48.144;17.136;2023-03-16T12:30:34;7.27;;;3.60;;
24735;SDS011;12840;48.144;17.136;2023-03-16T12:33:06;8.73;;;3.50;;
24735;SDS011;12840;48.144;17.136;2023-03-16T12:35:39;6.73;;;3.30;;
24735;SDS011;12840;48.144;17.136;2023-03-16T12:38:16;16.07;;;8.00;;
24735;SDS011;12840;48.144;17.136;2023-03-16T12:40:46;6.37;;;3.43;;
24735;SDS011;12840;48.144;17.136;2023-03-16T12:43:23;5.40;;;2.70;;
24735;SDS011;12840;48.144;17.136;2023-03-16T12:45:55;4.90;;;2.90;;
24735;SDS011;12840;48.144;17.136;2023-03-16T12:48:26;6.00;;;2.47;;
24735;SDS011;12840;48.144;17.136;2023-03-16T12:50:55;4.03;;;2.50;;
24735;SDS011;12840;48.144;17.136;2023-03-16T12:53:26;8.13;;;5.23;;
24735;SDS011;12840;48.144;17.136;2023-03-16T12:55:54;6.03;;;2.33;;
24735;SDS011;12840;48.144;17.136;2023-03-16T12:58:22;26.00;;;15.70;;
24735;SDS011;12840;48.144;17.136;2023-03-16T13:00:54;7.43;;;3.50;;
24735;SDS011;12840;48.144;17.136;2023-03-16T13:03:22;5.13;;;2.83;;
24735;SDS011;12840;48.144;17.136;2023-03-16T13:05:52;5.40;;;2.60;;
24735;SDS011;12840;48.144;17.136;2023-03-16T13:08:22;6.70;;;3.03;;
24735;SDS011;12840;48.144;17.136;2023-03-16T13:11:01;5.37;;;2.80;;
24735;SDS011;12840;48.144;17.136;2023-03-16T13:13:29;4.93;;;2.90;;
24735;SDS011;12840;48.144;17.136;2023-03-16T13:16:01;11.47;;;7.37;;
24735;SDS011;12840;48.144;17.136;2023-03-16T13:18:33;9.73;;;3.90;;
24735;SDS011;12840;48.144;17.136;2023-03-16T13:21:12;4.50;;;2.73;;
24735;SDS011;12840;48.144;17.136;2023-03-16T13:23:53;4.67;;;2.50;;
24735;SDS011;12840;48.144;17.136;2023-03-16T13:26:25;5.83;;;2.30;;
24735;SDS011;12840;48.144;17.136;2023-03-16T13:28:57;4.03;;;2.13;;
24735;SDS011;12840;48.144;17.136;2023-03-16T13:31:26;5.67;;;2.40;;
24735;SDS011;12840;48.144;17.136;2023-03-16T13:33:55;6.33;;;2.60;;
24735;SDS011;12840;48.144;17.136;2023-03-16T13:36:25;7.27;;;2.40;;
24735;SDS011;12840;48.144;17.136;2023-03-16T13:38:56;4.47;;;2.47;;
24735;SDS011;12840;48.144;17.136;2023-03-16T13:41:30;3.93;;;2.50;;
24735;SDS011;12840;48.144;17.136;2023-03-16T13:43:58;4.77;;;2.83;;
24735;SDS011;12840;48.144;17.136;2023-03-16T13:46:27;5.70;;;2.90;;
24735;SDS011;12840;48.144;17.136;2023-03-16T13:48:56;4.77;;;2.70;;
24735;SDS011;12840;48.144;17.136;2023-03-16T13:51:24;5.47;;;2.60;;
24735;SDS011;12840;48.144;17.136;2023-03-16T13:53:52;4.23;;;2.70;;
24735;SDS011;12840;48.144;17.136;2023-03-16T13:56:20;4.57;;;2.60;;
24735;SDS011;12840;48.144;17.136;2023-03-16T13:58:55;5.27;;;3.10;;
24735;SDS011;12840;48.144;17.136;2023-03-16T14:01:24;4.30;;;2.90;;
24735;SDS011;12840;48.144;17.136;2023-03-16T14:03:53;6.20;;;2.97;;
24735;SDS011;12840;48.144;17.136;2023-03-16T14:06:22;4.40;;;3.10;;
24735;SDS011;12840;48.144;17.136;2023-03-16T14:08:51;6.40;;;2.93;;
24735;SDS011;12840;48.144;17.136;2023-03-16T14:11:20;4.40;;;2.80;;
24735;SDS011;12840;48.144;17.136;2023-03-16T14:13:51;6.20;;;3.43;;
24735;SDS011;12840;48.144;17.136;2023-03-16T14:16:20;4.93;;;2.97;;
24735;SDS011;12840;48.144;17.136;2023-03-16T14:18:51;8.23;;;3.20;;
24735;SDS011;12840;48.144;17.136;2023-03-16T14:21:20;8.33;;;3.43;;
24735;SDS011;12840;48.144;17.136;2023-03-16T14:23:50;5.97;;;3.30;;
24735;SDS011;12840;48.144;17.136;2023-03-16T14:26:18;7.10;;;2.87;;
24735;SDS011;12840;48.144;17.136;2023-03-16T14:28:53;7.20;;;3.50;;
24735;SDS011;12840;48.144;17.136;2023-03-16T14:31:23;7.00;;;2.87;;
24735;SDS011;12840;48.144;17.136;2023-03-16T14:33:58;5.53;;;3.30;;
24735;SDS011;12840;48.144;17.136;2023-03-16T14:36:32;5.43;;;3.37;;
24735;SDS011;12840;48.144;17.136;2023-03-16T14:39:08;5.50;;;3.43;;